createdAt,value
2019-04-25T00:00:40.083Z,15.3
2019-04-25T00:05:37.100Z,15.2
2019-04-25T00:10:33.741Z,15.1
2019-04-25T00:15:31.844Z,14.9
2019-04-25T00:20:28.017Z,14.9
2019-04-25T00:25:25.343Z,14.9
2019-04-25T00:30:22.627Z,14.8
2019-04-25T00:35:19.290Z,14.8
2019-04-25T00:40:16.702Z,14.7
2019-04-25T00:45:14.233Z,14.6
2019-04-25T00:50:11.977Z,14.6
2019-04-25T00:55:08.659Z,14.5
2019-04-25T01:00:05.839Z,14.6
2019-04-25T01:05:03.037Z,14.5
2019-04-25T01:10:01.992Z,14.5
2019-04-25T01:14:57.688Z,14.5
2019-04-25T01:19:57.899Z,14.4
2019-04-25T01:24:54.081Z,13.7
2019-04-25T01:29:50.345Z,14.3
2019-04-25T01:34:48.519Z,14.3
2019-04-25T01:39:45.316Z,14.3
2019-04-25T01:44:44.070Z,14.3
2019-04-25T01:49:40.071Z,14.2
2019-04-25T01:54:37.481Z,14.1
2019-04-25T01:59:34.906Z,14.1
2019-04-25T02:04:31.980Z,14.1
2019-04-25T02:09:29.570Z,14
2019-04-25T02:14:26.964Z,14
2019-04-25T02:19:24.366Z,13.9
2019-04-25T02:24:23.616Z,13.9
2019-04-25T02:29:19.359Z,13.9
2019-04-25T02:34:18.087Z,13.8
2019-04-25T02:39:14.834Z,13.8
2019-04-25T02:44:11.179Z,13.8
2019-04-25T02:49:09.624Z,13.7
2019-04-25T02:54:07.896Z,13.7
2019-04-25T02:59:04.890Z,13.6
2019-04-25T03:04:00.916Z,13.6
2019-04-25T03:08:58.021Z,13.6
2019-04-25T03:13:54.837Z,13.6
2019-04-25T03:18:54.210Z,13.5
2019-04-25T03:23:48.972Z,13.4
2019-04-25T03:28:46.254Z,13.6
2019-04-25T03:33:45.722Z,13.5
2019-04-25T03:38:40.786Z,13.4
2019-04-25T03:43:38.004Z,13.4
2019-04-25T03:48:36.963Z,12.9
2019-04-25T03:53:33.767Z,13.4
2019-04-25T03:58:29.743Z,13.4
2019-04-25T04:03:26.875Z,12.8
2019-04-25T04:08:24.355Z,13.3
2019-04-25T04:13:21.680Z,13.3
2019-04-25T04:18:18.954Z,13.2
2019-04-25T04:23:16.232Z,13.3
2019-04-25T04:28:14.105Z,12.8
2019-04-25T04:33:22.883Z,12.8
2019-04-25T04:38:08.149Z,13.1
2019-04-25T04:43:05.293Z,13.3
2019-04-25T04:48:03.237Z,13.4
2019-04-25T04:52:59.963Z,13.4
2019-04-25T04:57:57.013Z,13.5
2019-04-25T05:02:54.012Z,13.5
2019-04-25T05:07:51.859Z,12.5
2019-04-25T05:12:49.102Z,13.6
2019-04-25T05:17:44.744Z,13.6
2019-04-25T05:22:41.063Z,13.6
2019-04-25T05:27:51.063Z,13
2019-04-25T05:32:35.923Z,13.3
2019-04-25T05:37:33.505Z,13.5
2019-04-25T05:42:30.326Z,13.6
2019-04-25T05:47:27.530Z,13.1
2019-04-25T05:52:25.209Z,13.6
2019-04-25T05:57:23.571Z,13.7
2019-04-25T06:02:19.510Z,13.7
2019-04-25T06:07:16.202Z,13.8
2019-04-25T06:12:13.511Z,13.9
2019-04-25T06:17:10.755Z,14
2019-04-25T06:22:08.854Z,13.5
2019-04-25T06:27:06.754Z,13.6
2019-04-25T06:32:07.987Z,14.3
2019-04-25T06:37:02.432Z,14.4
2019-04-25T06:41:57.819Z,14.4
2019-04-25T06:46:55.138Z,14.5
2019-04-25T06:51:54.423Z,14.6
2019-04-25T06:56:49.874Z,14.6
2019-04-25T07:01:47.297Z,14.7
2019-04-25T07:06:45.418Z,14.8
2019-04-25T07:11:41.726Z,14.9
2019-04-25T07:16:38.986Z,15
2019-04-25T07:21:36.454Z,15.1
2019-04-25T07:26:37.039Z,15.1
2019-04-25T07:31:30.794Z,15.3
2019-04-25T07:36:28.206Z,15.4
2019-04-25T07:41:25.885Z,15.5
2019-04-25T07:46:23.270Z,15.6
2019-04-25T07:51:18.873Z,15.8
2019-04-25T07:56:16.306Z,15.8
2019-04-25T08:01:14.038Z,16
2019-04-25T08:06:11.214Z,15.4
2019-04-25T08:11:10.375Z,16.2
2019-04-25T08:16:06.915Z,16.3
2019-04-25T08:21:04.391Z,16.4
2019-04-25T08:26:01.751Z,16.5
2019-04-25T08:30:58.869Z,16.6
2019-04-25T08:36:06.419Z,16.5
2019-04-25T08:40:54.137Z,16.8
2019-04-25T08:45:51.768Z,16.7
2019-04-25T08:50:53.643Z,17
2019-04-25T08:55:49.304Z,17.2
2019-04-25T09:00:58.038Z,17.4
2019-04-25T09:05:45.809Z,17.4
2019-04-25T09:10:41.380Z,17.6
2019-04-25T09:15:39.444Z,17.7
2019-04-25T09:20:39.078Z,17.5
2019-04-25T09:25:34.570Z,18
2019-04-25T09:30:31.063Z,18.2
2019-04-25T09:35:28.331Z,18
2019-04-25T09:40:25.810Z,18.1
2019-04-25T09:45:25.842Z,18.2
2019-04-25T09:50:21.041Z,18.5
2019-04-25T09:55:19.048Z,19.4
2019-04-25T10:00:16.436Z,19.3
2019-04-25T10:05:14.017Z,19.4
2019-04-25T10:10:11.109Z,19.6
2019-04-25T10:15:08.457Z,19.9
2019-04-25T10:20:06.213Z,20.1
2019-04-25T10:25:03.596Z,20.3
2019-04-25T10:30:14.357Z,20.8
2019-04-25T10:34:59.636Z,20.9
2019-04-25T10:39:57.555Z,21
2019-04-25T10:44:56.594Z,21.1
2019-04-25T10:49:53.636Z,20.7
2019-04-25T10:54:50.730Z,20.6
2019-04-25T10:59:59.004Z,21.4
2019-04-25T11:04:47.395Z,21.1
2019-04-25T11:09:45.466Z,21.3
2019-04-25T11:14:42.240Z,21.6
2019-04-25T11:19:39.081Z,21.8
2019-04-25T11:24:36.650Z,22
2019-04-25T11:29:34.689Z,22.2
2019-04-25T11:34:32.737Z,22.4
2019-04-25T11:39:30.412Z,22.7
2019-04-25T11:44:27.967Z,22.8
2019-04-25T11:49:25.420Z,22.8
2019-04-25T11:54:24.248Z,23
2019-04-25T11:59:19.975Z,23.5
2019-04-25T12:04:17.139Z,23.4
2019-04-25T12:09:14.350Z,23
2019-04-25T12:14:12.029Z,23.6
2019-04-25T12:19:09.704Z,23.7
2019-04-25T12:24:07.892Z,23.4
2019-04-25T12:29:04.971Z,22.7
2019-04-25T12:34:03.424Z,23.9
2019-04-25T12:39:01.061Z,23.5
2019-04-25T12:43:57.567Z,23.7
2019-04-25T12:48:54.970Z,24
2019-04-25T12:53:54.679Z,23.7
2019-04-25T12:58:50.062Z,23.7
2019-04-25T13:03:48.115Z,23.7
2019-04-25T13:08:45.152Z,24.3
2019-04-25T13:13:43.581Z,23.8
2019-04-25T13:18:40.354Z,24.1
2019-04-25T13:23:37.845Z,24.3
2019-04-25T13:28:35.235Z,23.7
2019-04-25T13:33:33.439Z,24.1
2019-04-25T13:38:29.836Z,24
2019-04-25T13:43:27.833Z,23.5
2019-04-25T13:48:26.509Z,24
2019-04-25T13:53:23.473Z,24
2019-04-25T13:58:20.775Z,23.7
2019-04-25T14:03:17.811Z,23.5
2019-04-25T14:08:15.341Z,23.8
2019-04-25T14:13:13.457Z,23.4
2019-04-25T14:18:09.986Z,23.5
2019-04-25T14:23:07.325Z,23.1
2019-04-25T14:28:05.668Z,23.5
2019-04-25T14:33:03.555Z,23.4
2019-04-25T14:37:59.236Z,23.2
2019-04-25T14:42:56.668Z,23.2
2019-04-25T14:47:54.478Z,22.6
2019-04-25T14:52:51.713Z,22.5
2019-04-25T14:57:48.216Z,22.5
2019-04-25T15:02:45.917Z,22.4
2019-04-25T15:07:43.301Z,22.3
2019-04-25T15:12:40.557Z,22.3
2019-04-25T15:17:44.982Z,22.2
2019-04-25T15:22:34.797Z,22.1
2019-04-25T15:27:33.072Z,22
2019-04-25T15:32:30.485Z,21.9
2019-04-25T15:37:26.752Z,21.8
2019-04-25T15:42:23.952Z,21.6
2019-04-25T15:47:21.442Z,21.7
2019-04-25T15:52:19.230Z,21.9
2019-04-25T15:57:16.016Z,21.6
2019-04-25T16:02:13.405Z,21.5
2019-04-25T16:07:10.008Z,21.4
2019-04-25T16:12:07.687Z,21.8
2019-04-25T16:17:05.265Z,21.2
2019-04-25T16:22:03.223Z,21.4
2019-04-25T16:27:00.685Z,21
2019-04-25T16:31:57.853Z,20.6
2019-04-25T16:36:55.359Z,20.7
2019-04-25T16:41:52.680Z,20.6
2019-04-25T16:46:49.707Z,20.5
2019-04-25T16:51:47.041Z,20.4
2019-04-25T16:56:44.186Z,20.3
2019-04-25T17:01:42.739Z,20.2
2019-04-25T17:06:38.526Z,20
2019-04-25T17:11:36.066Z,19.9
2019-04-25T17:16:33.399Z,19.5
2019-04-25T17:21:31.564Z,20.2
2019-04-25T17:26:29.102Z,20.1
2019-04-25T17:31:26.454Z,19.6
2019-04-25T17:36:23.758Z,19.5
2019-04-25T17:41:21.013Z,19.4
2019-04-25T17:46:18.261Z,19.3
2019-04-25T17:51:16.076Z,19.7
2019-04-25T17:56:13.482Z,19.2
2019-04-25T18:01:10.715Z,19.1
2019-04-25T18:06:07.631Z,19
2019-04-25T18:11:05.450Z,19.4
2019-04-25T18:16:02.987Z,18.9
2019-04-25T18:21:00.182Z,18.9
2019-04-25T18:25:57.094Z,18.9
2019-04-25T18:30:54.714Z,18.8
2019-04-25T18:35:52.246Z,18.6
2019-04-25T18:40:49.292Z,18.6
2019-04-25T18:45:46.998Z,18.5
2019-04-25T18:50:44.606Z,18.5
2019-04-25T18:55:41.779Z,18.9
2019-04-25T19:00:39.429Z,18.9
2019-04-25T19:05:36.931Z,18.8
2019-04-25T19:10:34.610Z,18.7
2019-04-25T19:15:31.814Z,18.3
2019-04-25T19:20:29.732Z,18.6
2019-04-25T19:25:27.756Z,17.9
2019-04-25T19:30:24.947Z,18.5
2019-04-25T19:35:22.395Z,13.3
2019-04-25T19:40:19.749Z,18.4
2019-04-25T19:45:17.266Z,18.4
2019-04-25T19:50:14.489Z,18.4
2019-04-25T19:55:11.622Z,16.6
2019-04-25T20:00:08.819Z,18.3
2019-04-25T20:05:06.202Z,18.2
2019-04-25T20:10:03.603Z,13
2019-04-25T20:15:00.759Z,18.2
2019-04-25T20:19:58.275Z,18.2
2019-04-25T20:24:55.682Z,18.1
2019-04-25T20:29:53.160Z,17.1
2019-04-25T20:34:51.026Z,18
2019-04-25T20:39:47.491Z,18
2019-04-25T20:44:45.385Z,17.9
2019-04-25T20:49:42.131Z,17.9
2019-04-25T20:54:39.128Z,17.8
2019-04-25T20:59:36.890Z,17.3
2019-04-25T21:04:33.790Z,17.7
2019-04-25T21:09:31.134Z,17.7
2019-04-25T21:14:28.528Z,16.9
2019-04-25T21:19:25.942Z,17.6
2019-04-25T21:24:23.723Z,17
2019-04-25T21:29:21.060Z,16
2019-04-25T21:34:26.035Z,17.5
2019-04-25T21:39:15.803Z,17.5
2019-04-25T21:44:13.484Z,17.5
2019-04-25T21:49:10.727Z,17.4
2019-04-25T21:54:08.347Z,17.4
2019-04-25T21:59:05.809Z,17.4
2019-04-25T22:04:03.164Z,17.4
2019-04-25T22:09:01.086Z,17.3
2019-04-25T22:13:59.494Z,17.3
2019-04-25T22:18:56.443Z,17.2
2019-04-25T22:24:03.254Z,17.1
2019-04-25T22:28:50.082Z,17.2
2019-04-25T22:33:47.083Z,17.2
2019-04-25T22:38:45.010Z,15.8
2019-04-25T22:43:42.070Z,16.9
2019-04-25T22:48:39.367Z,17
2019-04-25T22:53:36.793Z,16.4
2019-04-25T22:58:34.165Z,17
2019-04-25T23:03:32.026Z,16.4
2019-04-25T23:08:29.283Z,16.8
2019-04-25T23:13:26.705Z,16.6
2019-04-25T23:18:24.035Z,16.6
2019-04-25T23:23:21.549Z,16.5
2019-04-25T23:28:18.933Z,16.5
2019-04-25T23:33:16.434Z,16.4
2019-04-25T23:38:14.763Z,16.3
2019-04-25T23:43:11.737Z,16.2
2019-04-25T23:48:09.008Z,15.5
2019-04-25T23:53:06.482Z,16.1
2019-04-25T23:58:04.261Z,15.6
